createdAt,value
2022-08-03T00:00:32.632Z,20.26
2022-08-03T00:03:00.561Z,20.26
2022-08-03T00:05:28.471Z,20.20
2022-08-03T00:07:56.189Z,20.36
2022-08-03T00:10:25.354Z,20.29
2022-08-03T00:12:53.165Z,20.22
2022-08-03T00:15:21.399Z,20.26
2022-08-03T00:17:52.144Z,20.24
2022-08-03T00:20:22.403Z,20.28
2022-08-03T00:22:50.190Z,20.33
2022-08-03T00:25:19.176Z,20.39
2022-08-03T00:27:48.541Z,20.45
2022-08-03T00:30:18.680Z,20.30
2022-08-03T00:32:47.670Z,20.28
2022-08-03T00:35:34.368Z,20.27
2022-08-03T00:38:04.041Z,20.25
2022-08-03T00:40:31.809Z,20.27
2022-08-03T00:43:03.086Z,20.29
2022-08-03T00:45:32.932Z,20.30
2022-08-03T00:48:01.696Z,20.31
2022-08-03T00:50:32.376Z,20.33
2022-08-03T00:53:01.189Z,20.31
2022-08-03T00:55:29.089Z,20.28
2022-08-03T00:57:57.777Z,20.26
2022-08-03T01:00:28.851Z,20.27
2022-08-03T01:02:56.629Z,20.28
2022-08-03T01:05:24.658Z,20.22
2022-08-03T01:08:05.023Z,20.22
2022-08-03T01:10:41.016Z,20.17
2022-08-03T01:14:04.250Z,20.14
2022-08-03T01:16:12.328Z,20.18
2022-08-03T01:18:46.287Z,20.24
2022-08-03T01:21:19.177Z,20.29
2022-08-03T01:24:05.211Z,20.27
2022-08-03T01:26:54.952Z,20.30
2022-08-03T01:29:53.428Z,20.40
2022-08-03T01:33:02.408Z,20.44
2022-08-03T01:35:14.772Z,20.43
2022-08-03T01:37:48.865Z,20.44
2022-08-03T01:40:18.678Z,20.43
2022-08-03T01:42:48.875Z,20.44
2022-08-03T01:45:20.161Z,20.43
2022-08-03T01:47:49.419Z,20.46
2022-08-03T01:50:20.674Z,20.51
2022-08-03T01:52:49.278Z,20.55
2022-08-03T01:55:20.709Z,20.58
2022-08-03T01:58:05.490Z,20.61
2022-08-03T02:00:37.772Z,20.65
2022-08-03T02:03:07.790Z,20.71
2022-08-03T02:05:36.888Z,20.72
2022-08-03T02:08:08.791Z,20.76
2022-08-03T02:10:38.760Z,20.70
2022-08-03T02:13:09.451Z,20.68
2022-08-03T02:15:40.133Z,20.61
2022-08-03T02:18:10.352Z,20.56
2022-08-03T02:20:39.371Z,20.58
2022-08-03T02:23:07.612Z,20.57
2022-08-03T02:25:38.793Z,20.59
2022-08-03T02:28:11.718Z,20.60
2022-08-03T02:30:44.183Z,20.55
2022-08-03T02:33:15.127Z,20.54
2022-08-03T02:35:45.074Z,20.48
2022-08-03T02:38:14.690Z,20.49
2022-08-03T02:40:45.826Z,20.49
2022-08-03T02:43:19.056Z,20.58
2022-08-03T02:45:51.119Z,20.58
2022-08-03T02:48:22.706Z,20.73
2022-08-03T02:50:52.846Z,20.73
2022-08-03T02:53:22.501Z,20.71
2022-08-03T02:55:51.133Z,20.68
2022-08-03T02:58:21.252Z,20.62
2022-08-03T03:00:52.815Z,20.59
2022-08-03T03:03:23.080Z,20.54
2022-08-03T03:05:57.622Z,20.42
2022-08-03T03:08:28.608Z,20.38
2022-08-03T03:10:58.333Z,20.31
2022-08-03T03:13:28.066Z,20.34
2022-08-03T03:16:00.724Z,20.35
2022-08-03T03:18:29.975Z,20.33
2022-08-03T03:21:00.046Z,20.31
2022-08-03T03:23:29.949Z,20.18
2022-08-03T03:25:59.356Z,20.10
2022-08-03T03:28:27.777Z,20.00
2022-08-03T03:30:57.437Z,19.93
2022-08-03T03:33:28.255Z,19.84
2022-08-03T03:35:57.147Z,19.78
2022-08-03T03:38:24.853Z,19.73
2022-08-03T03:40:53.093Z,19.70
2022-08-03T03:43:20.846Z,19.70
2022-08-03T03:45:48.798Z,19.67
2022-08-03T03:48:18.138Z,19.68
2022-08-03T03:50:46.564Z,19.74
2022-08-03T03:53:15.901Z,19.79
2022-08-03T03:55:59.640Z,19.88
2022-08-03T03:58:32.017Z,19.99
2022-08-03T04:01:00.062Z,20.06
2022-08-03T04:03:29.312Z,20.38
2022-08-03T04:06:15.027Z,20.73
2022-08-03T04:09:15.080Z,21.10
2022-08-03T04:11:47.669Z,21.39
2022-08-03T04:14:19.188Z,21.51
2022-08-03T04:16:50.185Z,21.80
2022-08-03T04:19:28.161Z,22.16
2022-08-03T04:22:00.126Z,22.35
2022-08-03T04:24:34.000Z,22.67
2022-08-03T04:27:05.695Z,23.01
2022-08-03T04:29:36.045Z,23.18
2022-08-03T04:32:09.187Z,23.46
2022-08-03T04:34:38.605Z,23.66
2022-08-03T04:37:12.064Z,23.64
2022-08-03T04:39:43.212Z,23.79
2022-08-03T04:42:14.810Z,23.89
2022-08-03T04:44:45.467Z,23.32
2022-08-03T04:47:13.331Z,23.93
2022-08-03T04:49:43.219Z,24.30
2022-08-03T04:52:11.275Z,24.45
2022-08-03T04:54:50.723Z,24.46
2022-08-03T04:57:23.269Z,24.69
2022-08-03T04:59:58.234Z,24.99
2022-08-03T05:02:29.793Z,24.47
2022-08-03T05:04:59.550Z,24.24
2022-08-03T05:07:35.952Z,24.24
2022-08-03T05:10:11.707Z,24.32
2022-08-03T05:12:44.558Z,25.15
2022-08-03T05:15:12.827Z,25.04
2022-08-03T05:17:40.945Z,24.49
2022-08-03T05:20:11.951Z,24.30
2022-08-03T05:22:39.854Z,25.09
2022-08-03T05:25:08.208Z,25.19
2022-08-03T05:27:36.131Z,25.70
2022-08-03T05:30:30.855Z,25.77
2022-08-03T05:32:51.913Z,25.28
2022-08-03T05:36:00.848Z,24.96
2022-08-03T05:38:09.169Z,24.93
2022-08-03T05:40:37.117Z,24.76
2022-08-03T05:43:05.038Z,24.71
2022-08-03T05:45:32.765Z,24.67
2022-08-03T05:48:00.654Z,24.66
2022-08-03T05:50:29.751Z,24.61
2022-08-03T05:52:58.725Z,24.86
2022-08-03T05:55:26.667Z,24.95
2022-08-03T05:57:55.176Z,24.92
2022-08-03T06:00:25.072Z,25.10
2022-08-03T06:02:53.657Z,25.23
2022-08-03T06:05:21.588Z,25.38
2022-08-03T06:07:50.775Z,25.47
2022-08-03T06:10:35.409Z,25.45
2022-08-03T06:13:03.914Z,25.28
2022-08-03T06:15:33.336Z,25.36
2022-08-03T06:18:02.159Z,25.57
2022-08-03T06:20:30.386Z,25.56
2022-08-03T06:23:01.185Z,25.52
2022-08-03T06:25:29.434Z,25.72
2022-08-03T06:27:57.236Z,25.66
2022-08-03T06:30:25.559Z,25.76
2022-08-03T06:32:53.421Z,25.82
2022-08-03T06:35:21.257Z,25.98
2022-08-03T06:37:50.908Z,25.95
2022-08-03T06:40:24.488Z,26.04
2022-08-03T06:42:52.597Z,26.17
2022-08-03T06:45:20.524Z,26.27
2022-08-03T06:47:48.245Z,26.31
2022-08-03T06:50:17.267Z,26.21
2022-08-03T06:52:46.483Z,26.35
2022-08-03T06:55:14.391Z,26.38
2022-08-03T06:57:43.842Z,26.42
2022-08-03T07:00:12.901Z,26.40
2022-08-03T07:02:40.803Z,26.46
2022-08-03T07:05:09.710Z,26.54
2022-08-03T07:07:37.678Z,26.65
2022-08-03T07:10:06.839Z,26.89
2022-08-03T07:12:35.592Z,26.83
2022-08-03T07:15:05.976Z,26.93
2022-08-03T07:17:35.958Z,27.04
2022-08-03T07:20:06.566Z,26.95
2022-08-03T07:22:34.482Z,26.95
2022-08-03T07:25:02.500Z,27.15
2022-08-03T07:27:30.463Z,27.27
2022-08-03T07:30:00.811Z,27.42
2022-08-03T07:32:31.477Z,27.39
2022-08-03T07:35:01.217Z,27.36
2022-08-03T07:37:30.182Z,27.43
2022-08-03T07:39:58.332Z,27.53
2022-08-03T07:42:26.154Z,27.58
2022-08-03T07:44:53.978Z,27.52
2022-08-03T07:47:24.026Z,27.55
2022-08-03T07:49:53.492Z,27.42
2022-08-03T07:52:39.815Z,27.46
2022-08-03T07:55:08.727Z,27.48
2022-08-03T07:57:36.818Z,27.56
2022-08-03T08:00:07.429Z,27.54
2022-08-03T08:02:35.370Z,27.46
2022-08-03T08:05:05.928Z,27.53
2022-08-03T08:07:34.052Z,27.44
2022-08-03T08:10:01.767Z,27.64
2022-08-03T08:12:29.589Z,27.66
2022-08-03T08:14:57.371Z,27.65
2022-08-03T08:17:25.138Z,27.65
2022-08-03T08:19:53.505Z,27.74
2022-08-03T08:22:30.594Z,27.71
2022-08-03T08:24:59.749Z,27.78
2022-08-03T08:28:25.290Z,27.88
2022-08-03T08:30:20.541Z,27.89
2022-08-03T08:32:48.969Z,27.91
2022-08-03T08:35:17.716Z,27.98
2022-08-03T08:37:51.214Z,28.06
2022-08-03T08:40:22.247Z,28.20
2022-08-03T08:42:58.852Z,28.13
2022-08-03T08:45:27.974Z,28.06
2022-08-03T08:48:01.643Z,28.18
2022-08-03T08:50:31.615Z,28.53
2022-08-03T08:53:04.063Z,28.51
2022-08-03T08:56:00.126Z,28.53
2022-08-03T08:58:22.737Z,28.41
2022-08-03T09:00:51.910Z,28.29
2022-08-03T09:03:29.192Z,28.45
2022-08-03T09:05:59.954Z,28.52
2022-08-03T09:08:30.119Z,28.66
2022-08-03T09:10:57.988Z,28.73
2022-08-03T09:13:26.264Z,28.61
2022-08-03T09:16:12.976Z,28.63
2022-08-03T09:18:41.536Z,28.64
2022-08-03T09:21:31.057Z,28.65
2022-08-03T09:24:05.910Z,28.64
2022-08-03T09:26:36.345Z,28.95
2022-08-03T09:29:12.808Z,28.83
2022-08-03T09:31:44.665Z,28.80
2022-08-03T09:34:14.463Z,29.03
2022-08-03T09:36:44.072Z,29.09
2022-08-03T09:39:15.054Z,29.20
2022-08-03T09:41:44.431Z,29.26
2022-08-03T09:44:24.618Z,29.59
2022-08-03T09:46:54.839Z,29.60
2022-08-03T09:49:23.100Z,29.66
2022-08-03T09:52:31.313Z,29.56
2022-08-03T09:54:40.736Z,29.36
2022-08-03T09:57:08.611Z,29.27
2022-08-03T09:59:36.624Z,29.30
2022-08-03T10:02:22.892Z,29.24
2022-08-03T10:04:52.764Z,29.49
2022-08-03T10:07:21.628Z,29.73
2022-08-03T10:10:30.317Z,29.76
2022-08-03T10:12:48.798Z,29.83
2022-08-03T10:16:22.448Z,30.19
2022-08-03T10:18:05.775Z,30.02
2022-08-03T10:20:38.436Z,29.95
2022-08-03T10:23:06.953Z,29.93
2022-08-03T10:25:40.679Z,29.99
2022-08-03T10:28:11.396Z,30.51
2022-08-03T10:30:42.265Z,30.28
2022-08-03T10:33:49.720Z,30.01
2022-08-03T10:36:07.111Z,30.38
2022-08-03T10:38:39.628Z,30.23
2022-08-03T10:41:09.708Z,30.14
2022-08-03T10:43:48.982Z,30.29
2022-08-03T10:46:19.341Z,30.44
2022-08-03T10:48:48.231Z,30.57
2022-08-03T10:51:20.300Z,30.85
2022-08-03T10:53:55.260Z,30.54
2022-08-03T10:57:13.585Z,30.43
2022-08-03T11:00:00.524Z,30.91
2022-08-03T11:03:17.674Z,31.27
2022-08-03T11:05:48.220Z,31.16
2022-08-03T11:08:32.774Z,30.97
2022-08-03T11:11:03.302Z,31.01
2022-08-03T11:13:33.888Z,31.10
2022-08-03T11:16:21.943Z,31.43
2022-08-03T11:18:57.414Z,31.23
2022-08-03T11:21:53.945Z,31.59
2022-08-03T11:25:02.087Z,31.27
2022-08-03T11:27:32.196Z,31.43
2022-08-03T11:30:03.781Z,31.25
2022-08-03T11:32:54.062Z,31.48
2022-08-03T11:35:23.961Z,31.72
2022-08-03T11:38:13.824Z,31.90
2022-08-03T11:40:44.915Z,31.56
2022-08-03T11:43:45.306Z,31.41
2022-08-03T11:46:28.414Z,31.67
2022-08-03T11:49:09.739Z,31.38
2022-08-03T11:51:38.849Z,31.88
2022-08-03T11:54:07.608Z,32.13
2022-08-03T11:56:46.000Z,32.13
2022-08-03T11:59:20.090Z,31.70
2022-08-03T12:01:51.047Z,31.79
2022-08-03T12:04:18.818Z,31.89
2022-08-03T12:07:00.327Z,32.32
2022-08-03T12:09:28.243Z,32.61
2022-08-03T12:11:59.623Z,32.18
2022-08-03T12:14:49.417Z,31.86
2022-08-03T12:17:19.859Z,32.08
2022-08-03T12:19:48.031Z,31.91
2022-08-03T12:22:16.813Z,31.31
2022-08-03T12:24:47.259Z,31.68
2022-08-03T12:27:25.099Z,31.87
2022-08-03T12:29:58.484Z,31.80
2022-08-03T12:32:28.742Z,31.68
2022-08-03T12:35:00.846Z,31.69
2022-08-03T12:37:30.299Z,31.56
2022-08-03T12:40:07.784Z,31.50
2022-08-03T12:42:39.495Z,31.84
2022-08-03T12:45:20.001Z,31.73
2022-08-03T12:47:57.004Z,31.94
2022-08-03T12:50:26.777Z,31.84
2022-08-03T12:52:54.583Z,32.14
2022-08-03T12:55:23.683Z,32.16
2022-08-03T12:57:51.782Z,32.14
2022-08-03T13:00:28.933Z,32.26
2022-08-03T13:03:38.608Z,32.35
2022-08-03T13:05:51.636Z,32.15
2022-08-03T13:08:20.912Z,32.40
2022-08-03T13:10:49.355Z,32.39
2022-08-03T13:13:17.199Z,32.32
2022-08-03T13:15:47.922Z,32.24
2022-08-03T13:18:17.663Z,32.40
2022-08-03T13:20:45.677Z,32.54
2022-08-03T13:23:22.025Z,32.72
2022-08-03T13:25:55.022Z,32.30
2022-08-03T13:28:24.497Z,32.11
2022-08-03T13:30:54.190Z,32.40
2022-08-03T13:33:23.313Z,32.62
2022-08-03T13:35:51.061Z,32.59
2022-08-03T13:38:18.875Z,32.58
2022-08-03T13:40:49.543Z,32.70
2022-08-03T13:43:17.927Z,32.51
2022-08-03T13:45:51.292Z,32.80
2022-08-03T13:48:37.679Z,32.73
2022-08-03T13:51:11.772Z,32.37
2022-08-03T13:53:50.447Z,32.61
2022-08-03T13:56:18.225Z,32.82
2022-08-03T13:58:45.905Z,32.83
2022-08-03T14:01:13.662Z,32.99
2022-08-03T14:03:42.825Z,33.09
2022-08-03T14:06:10.597Z,33.24
2022-08-03T14:08:38.337Z,33.53
2022-08-03T14:11:06.216Z,33.60
2022-08-03T14:13:34.842Z,33.60
2022-08-03T14:16:02.711Z,33.10
2022-08-03T14:18:33.830Z,33.14
2022-08-03T14:21:06.205Z,33.13
2022-08-03T14:23:35.186Z,32.92
2022-08-03T14:26:02.939Z,32.91
2022-08-03T14:28:31.094Z,33.19
2022-08-03T14:30:58.947Z,32.93
2022-08-03T14:33:28.326Z,32.96
2022-08-03T14:35:56.238Z,33.34
2022-08-03T14:38:25.648Z,33.49
2022-08-03T14:40:53.769Z,33.61
2022-08-03T14:43:22.706Z,34.09
2022-08-03T14:45:52.406Z,34.81
2022-08-03T14:50:34.053Z,35.15
2022-08-03T14:51:08.534Z,35.28
2022-08-03T14:53:37.619Z,35.25
2022-08-03T14:56:10.108Z,35.23
2022-08-03T14:58:38.769Z,35.40
2022-08-03T15:02:04.675Z,35.53
2022-08-03T15:03:55.239Z,34.86
2022-08-03T15:06:23.000Z,34.40
2022-08-03T15:09:20.817Z,34.59
2022-08-03T15:11:39.989Z,34.60
2022-08-03T15:14:09.551Z,34.79
2022-08-03T15:16:37.888Z,34.92
2022-08-03T15:20:03.359Z,35.46
2022-08-03T15:21:53.501Z,35.28
2022-08-03T15:24:22.621Z,34.62
2022-08-03T15:26:50.453Z,34.39
2022-08-03T15:30:08.849Z,34.77
2022-08-03T15:32:09.400Z,35.50
2022-08-03T15:34:37.626Z,35.58
2022-08-03T15:37:15.142Z,35.57
2022-08-03T15:39:59.345Z,35.70
2022-08-03T15:42:29.402Z,35.43
2022-08-03T15:44:57.407Z,34.54
2022-08-03T15:47:25.334Z,34.68
2022-08-03T15:49:53.112Z,35.17
2022-08-03T15:52:20.870Z,35.37
2022-08-03T15:54:48.629Z,35.35
2022-08-03T15:57:17.937Z,35.53
2022-08-03T15:59:45.711Z,35.16
2022-08-03T16:02:13.436Z,35.09
2022-08-03T16:04:41.153Z,35.09
2022-08-03T16:07:08.968Z,35.51
2022-08-03T16:09:43.200Z,35.02
2022-08-03T16:12:16.034Z,34.67
2022-08-03T16:14:54.097Z,34.87
2022-08-03T16:17:24.218Z,34.25
2022-08-03T16:19:55.153Z,34.59
2022-08-03T16:22:23.768Z,35.35
2022-08-03T16:24:51.740Z,35.65
2022-08-03T16:27:56.745Z,36.08
2022-08-03T16:30:10.486Z,36.29
2022-08-03T16:32:39.894Z,36.69
2022-08-03T16:35:08.718Z,36.50
2022-08-03T16:37:38.641Z,35.83
2022-08-03T16:40:19.188Z,35.85
2022-08-03T16:42:47.609Z,36.35
2022-08-03T16:45:16.837Z,36.70
2022-08-03T16:47:44.795Z,36.41
2022-08-03T16:50:18.937Z,36.90
2022-08-03T16:52:47.850Z,37.08
2022-08-03T16:55:22.263Z,36.79
2022-08-03T16:58:05.530Z,36.66
2022-08-03T17:00:41.232Z,36.71
2022-08-03T17:03:12.757Z,36.48
2022-08-03T17:05:48.078Z,36.69
2022-08-03T17:08:18.969Z,36.54
2022-08-03T17:10:54.177Z,36.08
2022-08-03T17:13:23.107Z,36.24
2022-08-03T17:16:10.442Z,35.62
2022-08-03T17:18:42.223Z,34.68
2022-08-03T17:21:18.560Z,33.91
2022-08-03T17:23:56.118Z,33.43
2022-08-03T17:26:30.616Z,33.31
2022-08-03T17:29:13.216Z,32.98
2022-08-03T17:31:49.375Z,32.99
2022-08-03T17:34:18.811Z,32.87
2022-08-03T17:37:03.846Z,32.63
2022-08-03T17:39:57.498Z,32.56
2022-08-03T17:42:38.776Z,32.45
2022-08-03T17:45:07.944Z,32.29
2022-08-03T17:47:44.918Z,32.30
2022-08-03T17:50:33.269Z,32.18
2022-08-03T17:53:07.095Z,32.05
2022-08-03T17:55:57.093Z,31.98
2022-08-03T17:58:39.599Z,31.87
2022-08-03T18:01:59.778Z,31.79
2022-08-03T18:04:30.213Z,31.58
2022-08-03T18:07:11.153Z,31.46
2022-08-03T18:10:06.695Z,31.25
2022-08-03T18:12:53.132Z,31.04
2022-08-03T18:15:30.415Z,30.84
2022-08-03T18:18:10.478Z,30.67
2022-08-03T18:20:42.698Z,30.63
2022-08-03T18:23:20.485Z,30.50
2022-08-03T18:25:58.287Z,30.38
2022-08-03T18:28:28.039Z,30.25
2022-08-03T18:30:56.714Z,30.13
2022-08-03T18:34:16.703Z,30.03
2022-08-03T18:36:22.066Z,29.93
2022-08-03T18:38:59.355Z,29.81
2022-08-03T18:41:32.180Z,29.68
2022-08-03T18:44:07.082Z,29.57
2022-08-03T18:46:48.202Z,29.47
2022-08-03T18:49:29.696Z,29.31
2022-08-03T18:52:04.672Z,29.16
2022-08-03T18:55:01.156Z,29.15
2022-08-03T18:57:40.405Z,29.03
2022-08-03T19:00:14.075Z,28.94
2022-08-03T19:02:50.110Z,28.79
2022-08-03T19:05:21.362Z,28.75
2022-08-03T19:07:59.854Z,28.74
2022-08-03T19:10:32.235Z,28.72
2022-08-03T19:13:11.364Z,28.56
2022-08-03T19:15:51.448Z,28.46
2022-08-03T19:18:22.044Z,28.34
2022-08-03T19:20:54.734Z,28.24
2022-08-03T19:23:26.511Z,28.11
2022-08-03T19:26:03.296Z,28.00
2022-08-03T19:28:32.182Z,27.93
2022-08-03T19:31:02.694Z,27.85
2022-08-03T19:33:55.798Z,27.77
2022-08-03T19:36:27.516Z,27.66
2022-08-03T19:38:58.366Z,27.61
2022-08-03T19:41:31.237Z,27.57
2022-08-03T19:44:11.607Z,27.48
2022-08-03T19:46:47.934Z,27.49
2022-08-03T19:49:17.438Z,27.46
2022-08-03T19:52:01.561Z,27.41
2022-08-03T19:54:39.661Z,27.38
2022-08-03T19:57:19.859Z,27.30
2022-08-03T19:59:51.689Z,27.21
2022-08-03T20:02:27.249Z,27.10
2022-08-03T20:04:56.909Z,27.04
2022-08-03T20:07:25.574Z,27.13
2022-08-03T20:09:56.590Z,26.95
2022-08-03T20:12:28.061Z,26.89
2022-08-03T20:14:57.895Z,26.82
2022-08-03T20:17:56.972Z,26.77
2022-08-03T20:20:14.414Z,26.69
2022-08-03T20:22:47.673Z,26.63
2022-08-03T20:25:21.120Z,26.62
2022-08-03T20:28:07.776Z,26.62
2022-08-03T20:30:43.735Z,26.52
2022-08-03T20:33:11.508Z,26.56
2022-08-03T20:35:41.947Z,26.49
2022-08-03T20:38:13.662Z,26.44
2022-08-03T20:40:42.831Z,26.39
2022-08-03T20:43:10.664Z,26.29
2022-08-03T20:45:58.589Z,26.17
2022-08-03T20:48:29.986Z,26.16
2022-08-03T20:50:58.155Z,26.20
2022-08-03T20:53:57.491Z,26.13
2022-08-03T20:56:16.258Z,26.07
2022-08-03T20:58:50.744Z,25.98
2022-08-03T21:01:27.913Z,25.93
2022-08-03T21:04:06.999Z,25.88
2022-08-03T21:06:39.418Z,25.88
2022-08-03T21:09:12.554Z,25.87
2022-08-03T21:11:45.577Z,25.74
2022-08-03T21:14:19.894Z,25.64
2022-08-03T21:16:51.499Z,25.64
2022-08-03T21:19:21.954Z,25.59
2022-08-03T21:21:50.647Z,25.53
2022-08-03T21:24:22.736Z,25.50
2022-08-03T21:26:54.897Z,25.45
2022-08-03T21:29:22.890Z,25.40
2022-08-03T21:31:51.775Z,25.33
2022-08-03T21:34:21.021Z,25.33
2022-08-03T21:36:49.321Z,25.38
2022-08-03T21:39:17.168Z,25.33
2022-08-03T21:41:44.980Z,25.23
2022-08-03T21:44:14.218Z,25.24
2022-08-03T21:46:43.412Z,25.19
2022-08-03T21:50:04.248Z,25.14
2022-08-03T21:52:06.038Z,25.17
2022-08-03T21:54:36.421Z,25.11
2022-08-03T21:57:06.968Z,25.06
2022-08-03T21:59:38.958Z,24.99
2022-08-03T22:02:11.476Z,24.97
2022-08-03T22:04:55.406Z,25.00
2022-08-03T22:07:24.311Z,24.98
2022-08-03T22:09:53.081Z,24.84
2022-08-03T22:12:23.735Z,24.71
2022-08-03T22:15:00.932Z,24.66
2022-08-03T22:17:53.701Z,24.66
2022-08-03T22:20:22.547Z,24.63
2022-08-03T22:22:55.715Z,24.60
2022-08-03T22:25:28.929Z,24.54
2022-08-03T22:27:58.629Z,24.42
2022-08-03T22:30:27.926Z,24.48
2022-08-03T22:32:57.601Z,24.47
2022-08-03T22:35:26.937Z,24.42
2022-08-03T22:37:56.649Z,24.35
2022-08-03T22:40:24.724Z,24.38
2022-08-03T22:42:53.294Z,24.36
2022-08-03T22:46:06.094Z,24.39
2022-08-03T22:48:11.661Z,24.48
2022-08-03T22:50:40.403Z,24.44
2022-08-03T22:53:08.566Z,24.40
2022-08-03T22:55:37.830Z,24.37
2022-08-03T22:58:05.596Z,24.33
2022-08-03T23:00:33.203Z,24.28
2022-08-03T23:03:03.243Z,24.15
2022-08-03T23:06:01.224Z,24.14
2022-08-03T23:08:27.362Z,24.08
2022-08-03T23:11:02.935Z,24.07
2022-08-03T23:13:33.104Z,24.02
2022-08-03T23:16:01.618Z,24.05
2022-08-03T23:18:37.180Z,23.99
2022-08-03T23:21:11.653Z,23.99
2022-08-03T23:23:43.913Z,23.97
2022-08-03T23:26:13.763Z,23.95
2022-08-03T23:28:46.153Z,23.95
2022-08-03T23:31:15.433Z,23.90
2022-08-03T23:33:45.465Z,23.89
2022-08-03T23:36:31.313Z,23.83
2022-08-03T23:39:03.058Z,23.73
2022-08-03T23:41:31.891Z,23.82
2022-08-03T23:44:01.868Z,23.75
2022-08-03T23:46:31.992Z,23.75
2022-08-03T23:49:00.809Z,23.82
2022-08-03T23:51:40.144Z,23.77
2022-08-03T23:54:15.231Z,23.76
2022-08-03T23:56:55.366Z,23.82
2022-08-03T23:59:31.813Z,23.84
